sensor_id;sensor_type;location;lat;lon;timestamp;P1;durP1;ratioP1;P2;durP2;ratioP2
14153;SDS011;7157;53.144;7.570;2024-02-26T00:04:25;16.15;;;8.25;;
14153;SDS011;7157;53.144;7.570;2024-02-26T00:14:30;13.93;;;8.05;;
14153;SDS011;7157;53.144;7.570;2024-02-26T00:24:33;20.30;;;9.20;;
14153;SDS011;7157;53.144;7.570;2024-02-26T00:34:37;18.80;;;8.57;;
14153;SDS011;7157;53.144;7.570;2024-02-26T00:44:40;19.48;;;8.90;;
14153;SDS011;7157;53.144;7.570;2024-02-26T00:54:44;23.65;;;9.38;;
14153;SDS011;7157;53.144;7.570;2024-02-26T01:04:47;18.45;;;8.48;;
14153;SDS011;7157;53.144;7.570;2024-02-26T01:14:51;17.90;;;8.25;;
14153;SDS011;7157;53.144;7.570;2024-02-26T01:24:54;24.27;;;10.07;;
14153;SDS011;7157;53.144;7.570;2024-02-26T01:34:59;22.77;;;8.48;;
14153;SDS011;7157;53.144;7.570;2024-02-26T01:45:02;22.77;;;10.98;;
14153;SDS011;7157;53.144;7.570;2024-02-26T01:55:08;33.38;;;11.27;;
14153;SDS011;7157;53.144;7.570;2024-02-26T02:05:11;25.10;;;11.60;;
14153;SDS011;7157;53.144;7.570;2024-02-26T02:15:16;28.33;;;11.43;;
14153;SDS011;7157;53.144;7.570;2024-02-26T02:25:20;25.00;;;9.55;;
14153;SDS011;7157;53.144;7.570;2024-02-26T02:35:23;36.42;;;14.05;;
14153;SDS011;7157;53.144;7.570;2024-02-26T02:45:27;27.80;;;11.15;;
14153;SDS011;7157;53.144;7.570;2024-02-26T02:55:30;32.28;;;12.65;;
14153;SDS011;7157;53.144;7.570;2024-02-26T03:05:34;25.55;;;11.50;;
14153;SDS011;7157;53.144;7.570;2024-02-26T03:15:37;24.83;;;10.60;;
14153;SDS011;7157;53.144;7.570;2024-02-26T03:25:42;21.23;;;8.98;;
14153;SDS011;7157;53.144;7.570;2024-02-26T03:35:47;22.85;;;8.30;;
14153;SDS011;7157;53.144;7.570;2024-02-26T03:45:51;22.55;;;7.93;;
14153;SDS011;7157;53.144;7.570;2024-02-26T03:55:54;18.73;;;8.05;;
14153;SDS011;7157;53.144;7.570;2024-02-26T04:05:58;19.00;;;7.53;;
14153;SDS011;7157;53.144;7.570;2024-02-26T04:16:01;16.13;;;7.25;;
14153;SDS011;7157;53.144;7.570;2024-02-26T04:26:06;15.50;;;6.30;;
14153;SDS011;7157;53.144;7.570;2024-02-26T04:36:12;10.82;;;4.97;;
14153;SDS011;7157;53.144;7.570;2024-02-26T04:46:17;8.55;;;4.90;;
14153;SDS011;7157;53.144;7.570;2024-02-26T04:56:20;9.35;;;4.65;;
14153;SDS011;7157;53.144;7.570;2024-02-26T05:06:24;9.50;;;4.57;;
14153;SDS011;7157;53.144;7.570;2024-02-26T05:16:27;8.27;;;4.45;;
14153;SDS011;7157;53.144;7.570;2024-02-26T05:26:33;8.48;;;4.55;;
14153;SDS011;7157;53.144;7.570;2024-02-26T05:36:36;10.43;;;4.70;;
14153;SDS011;7157;53.144;7.570;2024-02-26T05:46:41;14.90;;;4.45;;
14153;SDS011;7157;53.144;7.570;2024-02-26T05:56:44;8.82;;;3.80;;
14153;SDS011;7157;53.144;7.570;2024-02-26T06:06:48;7.18;;;3.65;;
14153;SDS011;7157;53.144;7.570;2024-02-26T06:16:51;8.18;;;3.72;;
14153;SDS011;7157;53.144;7.570;2024-02-26T06:26:55;5.03;;;3.05;;
14153;SDS011;7157;53.144;7.570;2024-02-26T06:36:58;6.07;;;3.45;;
14153;SDS011;7157;53.144;7.570;2024-02-26T06:47:02;9.05;;;4.35;;
14153;SDS011;7157;53.144;7.570;2024-02-26T06:57:05;7.90;;;3.85;;
14153;SDS011;7157;53.144;7.570;2024-02-26T07:07:10;5.63;;;3.35;;
14153;SDS011;7157;53.144;7.570;2024-02-26T07:17:13;7.00;;;3.70;;
14153;SDS011;7157;53.144;7.570;2024-02-26T07:27:19;6.18;;;3.47;;
14153;SDS011;7157;53.144;7.570;2024-02-26T07:37:22;6.63;;;3.45;;
14153;SDS011;7157;53.144;7.570;2024-02-26T07:47:27;6.13;;;3.47;;
14153;SDS011;7157;53.144;7.570;2024-02-26T07:57:32;6.70;;;3.47;;
14153;SDS011;7157;53.144;7.570;2024-02-26T08:07:37;5.60;;;3.25;;
14153;SDS011;7157;53.144;7.570;2024-02-26T08:17:40;5.55;;;3.10;;
14153;SDS011;7157;53.144;7.570;2024-02-26T08:27:45;6.43;;;3.28;;
14153;SDS011;7157;53.144;7.570;2024-02-26T08:37:48;9.73;;;4.25;;
14153;SDS011;7157;53.144;7.570;2024-02-26T08:47:52;6.65;;;4.07;;
14153;SDS011;7157;53.144;7.570;2024-02-26T08:57:55;5.07;;;2.92;;
14153;SDS011;7157;53.144;7.570;2024-02-26T09:08:00;8.80;;;3.72;;
14153;SDS011;7157;53.144;7.570;2024-02-26T09:18:03;5.45;;;3.53;;
14153;SDS011;7157;53.144;7.570;2024-02-26T09:28:07;5.72;;;3.30;;
14153;SDS011;7157;53.144;7.570;2024-02-26T09:38:10;7.38;;;3.53;;
14153;SDS011;7157;53.144;7.570;2024-02-26T09:48:14;11.73;;;4.28;;
14153;SDS011;7157;53.144;7.570;2024-02-26T09:58:19;6.88;;;3.58;;
14153;SDS011;7157;53.144;7.570;2024-02-26T10:08:25;6.13;;;3.45;;
14153;SDS011;7157;53.144;7.570;2024-02-26T10:39:03;5.88;;;3.03;;
14153;SDS011;7157;53.144;7.570;2024-02-26T10:49:13;9.55;;;3.55;;
14153;SDS011;7157;53.144;7.570;2024-02-26T10:59:20;6.15;;;3.22;;
14153;SDS011;7157;53.144;7.570;2024-02-26T11:09:26;6.63;;;3.60;;
14153;SDS011;7157;53.144;7.570;2024-02-26T11:19:29;11.80;;;5.20;;
14153;SDS011;7157;53.144;7.570;2024-02-26T11:29:41;7.00;;;3.50;;
14153;SDS011;7157;53.144;7.570;2024-02-26T11:39:49;7.50;;;4.03;;
14153;SDS011;7157;53.144;7.570;2024-02-26T11:49:56;8.38;;;4.13;;
14153;SDS011;7157;53.144;7.570;2024-02-26T12:00:10;7.50;;;3.97;;
14153;SDS011;7157;53.144;7.570;2024-02-26T12:10:25;6.50;;;3.60;;
14153;SDS011;7157;53.144;7.570;2024-02-26T12:20:29;6.43;;;3.35;;
14153;SDS011;7157;53.144;7.570;2024-02-26T12:30:34;7.90;;;4.05;;
14153;SDS011;7157;53.144;7.570;2024-02-26T12:40:37;9.52;;;5.28;;
14153;SDS011;7157;53.144;7.570;2024-02-26T12:50:44;10.45;;;5.32;;
14153;SDS011;7157;53.144;7.570;2024-02-26T13:00:48;13.73;;;6.68;;
14153;SDS011;7157;53.144;7.570;2024-02-26T13:10:52;10.00;;;5.97;;
14153;SDS011;7157;53.144;7.570;2024-02-26T13:20:55;9.90;;;5.72;;
14153;SDS011;7157;53.144;7.570;2024-02-26T13:31:10;9.52;;;5.43;;
14153;SDS011;7157;53.144;7.570;2024-02-26T13:41:14;10.48;;;6.10;;
14153;SDS011;7157;53.144;7.570;2024-02-26T13:51:18;11.82;;;5.70;;
14153;SDS011;7157;53.144;7.570;2024-02-26T14:01:21;9.68;;;5.13;;
14153;SDS011;7157;53.144;7.570;2024-02-26T14:11:25;8.73;;;4.50;;
14153;SDS011;7157;53.144;7.570;2024-02-26T14:21:30;9.65;;;5.30;;
14153;SDS011;7157;53.144;7.570;2024-02-26T14:31:34;12.13;;;5.95;;
14153;SDS011;7157;53.144;7.570;2024-02-26T14:41:37;12.35;;;6.95;;
14153;SDS011;7157;53.144;7.570;2024-02-26T14:51:42;13.25;;;6.95;;
14153;SDS011;7157;53.144;7.570;2024-02-26T15:01:45;12.02;;;5.90;;
14153;SDS011;7157;53.144;7.570;2024-02-26T15:11:50;14.18;;;7.25;;
14153;SDS011;7157;53.144;7.570;2024-02-26T15:21:53;12.38;;;5.60;;
14153;SDS011;7157;53.144;7.570;2024-02-26T15:31:57;12.07;;;6.18;;
14153;SDS011;7157;53.144;7.570;2024-02-26T15:42:00;12.65;;;6.63;;
14153;SDS011;7157;53.144;7.570;2024-02-26T15:52:05;10.55;;;5.85;;
14153;SDS011;7157;53.144;7.570;2024-02-26T16:02:08;11.63;;;6.22;;
14153;SDS011;7157;53.144;7.570;2024-02-26T16:12:15;9.57;;;5.10;;
14153;SDS011;7157;53.144;7.570;2024-02-26T16:22:22;14.27;;;5.95;;
14153;SDS011;7157;53.144;7.570;2024-02-26T16:32:27;12.70;;;6.50;;
14153;SDS011;7157;53.144;7.570;2024-02-26T16:42:30;13.43;;;6.63;;
14153;SDS011;7157;53.144;7.570;2024-02-26T16:52:35;11.85;;;6.47;;
14153;SDS011;7157;53.144;7.570;2024-02-26T17:02:38;13.73;;;6.43;;
14153;SDS011;7157;53.144;7.570;2024-02-26T17:12:43;14.38;;;6.43;;
14153;SDS011;7157;53.144;7.570;2024-02-26T17:22:47;8.40;;;4.53;;
14153;SDS011;7157;53.144;7.570;2024-02-26T17:32:51;11.75;;;5.85;;
14153;SDS011;7157;53.144;7.570;2024-02-26T17:42:54;11.93;;;5.53;;
14153;SDS011;7157;53.144;7.570;2024-02-26T17:52:58;13.73;;;6.55;;
14153;SDS011;7157;53.144;7.570;2024-02-26T18:03:01;14.13;;;5.72;;
14153;SDS011;7157;53.144;7.570;2024-02-26T18:13:06;13.48;;;5.55;;
14153;SDS011;7157;53.144;7.570;2024-02-26T18:23:10;13.75;;;6.47;;
14153;SDS011;7157;53.144;7.570;2024-02-26T18:33:14;12.23;;;6.55;;
14153;SDS011;7157;53.144;7.570;2024-02-26T18:43:17;13.18;;;6.40;;
14153;SDS011;7157;53.144;7.570;2024-02-26T18:53:22;13.10;;;7.13;;
14153;SDS011;7157;53.144;7.570;2024-02-26T19:03:25;14.85;;;6.80;;
14153;SDS011;7157;53.144;7.570;2024-02-26T19:13:29;15.25;;;7.13;;
14153;SDS011;7157;53.144;7.570;2024-02-26T19:23:33;18.90;;;9.57;;
14153;SDS011;7157;53.144;7.570;2024-02-26T19:33:38;13.43;;;6.85;;
14153;SDS011;7157;53.144;7.570;2024-02-26T19:43:41;14.05;;;6.90;;
14153;SDS011;7157;53.144;7.570;2024-02-26T19:53:45;14.80;;;7.53;;
14153;SDS011;7157;53.144;7.570;2024-02-26T20:03:48;15.57;;;8.23;;
14153;SDS011;7157;53.144;7.570;2024-02-26T20:13:53;14.10;;;7.55;;
14153;SDS011;7157;53.144;7.570;2024-02-26T20:23:55;13.50;;;6.78;;
14153;SDS011;7157;53.144;7.570;2024-02-26T20:34:00;13.32;;;7.57;;
14153;SDS011;7157;53.144;7.570;2024-02-26T20:44:04;17.42;;;8.07;;
14153;SDS011;7157;53.144;7.570;2024-02-26T20:54:08;17.27;;;7.95;;
14153;SDS011;7157;53.144;7.570;2024-02-26T21:04:12;19.70;;;9.20;;
14153;SDS011;7157;53.144;7.570;2024-02-26T21:14:17;21.52;;;9.23;;
14153;SDS011;7157;53.144;7.570;2024-02-26T21:24:20;21.60;;;7.95;;
14153;SDS011;7157;53.144;7.570;2024-02-26T21:34:25;18.90;;;8.07;;
14153;SDS011;7157;53.144;7.570;2024-02-26T21:44:28;18.17;;;7.78;;
14153;SDS011;7157;53.144;7.570;2024-02-26T21:54:32;18.35;;;8.80;;
14153;SDS011;7157;53.144;7.570;2024-02-26T22:04:36;16.55;;;7.47;;
14153;SDS011;7157;53.144;7.570;2024-02-26T22:14:40;16.55;;;8.27;;
14153;SDS011;7157;53.144;7.570;2024-02-26T22:24:44;16.00;;;7.82;;
14153;SDS011;7157;53.144;7.570;2024-02-26T22:34:48;15.63;;;7.30;;
14153;SDS011;7157;53.144;7.570;2024-02-26T22:44:51;14.45;;;7.18;;
14153;SDS011;7157;53.144;7.570;2024-02-26T22:54:56;15.65;;;7.38;;
14153;SDS011;7157;53.144;7.570;2024-02-26T23:04:58;18.67;;;7.10;;
14153;SDS011;7157;53.144;7.570;2024-02-26T23:15:03;17.00;;;8.13;;
14153;SDS011;7157;53.144;7.570;2024-02-26T23:25:08;18.55;;;7.53;;
14153;SDS011;7157;53.144;7.570;2024-02-26T23:35:13;14.68;;;7.28;;
14153;SDS011;7157;53.144;7.570;2024-02-26T23:45:16;14.95;;;7.25;;
14153;SDS011;7157;53.144;7.570;2024-02-26T23:55:20;18.00;;;7.13;;
